CheckWX is a tool to help pilots better visualize weather data.  It is not intended as a substitute for an official pre-flight weather briefing.

23:45:40 UTC

KDLH TAF
Duluth International Airport
Duluth, Minnesota, USA
KDLH 182333Z 1900/1924 13009G20KT P6SM SCT050 WS015/18028KT FM190200 16011G19KT P6SM BKN050 WS015/19032KT FM190700 19009G15KT P6SM VCSH BKN030 WS010/20020KT FM191300 25008KT P6SM BKN060 FM191800 26010G19KT P6SM FEW070

Oct-19@
00:00 UTC

Oct-19 @ 00:00 UTC

Oct-19@
02:00 UTC

Oct-19 @ 02:00 UTC

KDLH 182333Z 1900/1924 13009G20KT P6SM SCT050 WS015/18028KT
Wind
  • 130° at 9 KTS
  • {Gusting to 20 KTS
Cloud Levels
  • Scattered at 5,000' AGL

Oct-19@
02:00 UTC

Oct-19 @ 02:00 UTC

Oct-19@
07:00 UTC

Oct-19 @ 07:00 UTC

FM190200 16011G19KT P6SM BKN050 WS015/19032KT

From

From Standard forecast or significant change

Wind
  • 160° at 11 KTS
  • {Gusting to 19 KTS
Cloud Levels
  • Broken at 5,000' AGL

Oct-19@
07:00 UTC

Oct-19 @ 07:00 UTC

Oct-19@
13:00 UTC

Oct-19 @ 13:00 UTC

FM190700 19009G15KT P6SM VCSH BKN030 WS010/20020KT

From

From Standard forecast or significant change

Wind
  • 190° at 9 KTS
  • {Gusting to 15 KTS
Cloud Levels
  • Broken at 3,000' AGL

Oct-19@
13:00 UTC

Oct-19 @ 13:00 UTC

Oct-19@
18:00 UTC

Oct-19 @ 18:00 UTC

FM191300 25008KT P6SM BKN060

From

From Standard forecast or significant change

Wind
  • 250° at 8 KTS
Cloud Levels
  • Broken at 6,000' AGL

Oct-19@
18:00 UTC

Oct-19 @ 18:00 UTC

Oct-20@
00:00 UTC

Oct-20 @ 00:00 UTC

FM191800 26010G19KT P6SM FEW070

From

From Standard forecast or significant change

Wind
  • 260° at 10 KTS
  • {Gusting to 19 KTS
Cloud Levels
  • Few at 7,000' AGL